Stations météo

Publicité
Formigueres, France (7737): Température de l'air & dewpoint: 28.05.2020 02:00:00 - 03.06.2020 02:00:00 (CEST)Formigueres, France (7737): Vitesse du vent & gusts: 28.05.2020 02:00:00 - 03.06.2020 02:00:00 (CEST)Formigueres, France (7737): Direction du vent: 28.05.2020 02:00:00 - 03.06.2020 02:00:00 (CEST)Formigueres, France (7737): Quantités de précipitations: 28.05.2020 02:00:00 - 03.06.2020 02:00:00 (CEST)
Date & Time tt [°C] td [°C] ff [km/h] ff [knt] fx [km/h] fx [knt] dd rr [mm]
03.06.2020 02:00:00 - - - - - - - -
03.06.2020 01:00:00 8,4 7,3 14 8 21 11 W 0,0
03.06.2020 00:00:00 9,1 7,9 11 6 18 10 WSW 0,0
02.06.2020 23:00:00 10,2 9,3 9 5 18 10 WSW 0,0
02.06.2020 22:00:00 10,6 9,2 9 5 14 8 WSW 0,0
02.06.2020 21:00:00 11,9 9,6 6 3 20 11 SSE 0,0
02.06.2020 20:00:00 13,4 10,0 14 8 31 17 N 0,0
02.06.2020 19:00:00 14,5 9,9 20 11 37 20 N 0,0
02.06.2020 18:00:00 17,4 11,4 22 12 38 21 N 0,0
02.06.2020 17:00:00 17,8 11,8 22 12 38 20 N 0,0
02.06.2020 16:00:00 18,0 10,8 24 13 42 23 NNE 0,0
02.06.2020 15:00:00 17,6 12,3 22 12 42 23 NNE 0,0
02.06.2020 14:00:00 17,9 12,6 20 11 39 21 NNE 0,0
02.06.2020 13:00:00 17,2 11,0 22 12 37 20 NNE 0,0
02.06.2020 12:00:00 - - - - - - - -
02.06.2020 11:00:00 - - - - - - - -
02.06.2020 10:00:00 - - - - - - - -
02.06.2020 09:00:00 - - - - - - - -
02.06.2020 08:00:00 9,7 8,9 4 2 11 6 WSW 0,0
02.06.2020 07:00:00 7,8 7,2 5 3 15 8 SW 0,0
02.06.2020 06:00:00 7,5 6,9 6 4 15 8 WSW 0,0
02.06.2020 05:00:00 8,1 7,7 3 2 15 8 W 0,0
02.06.2020 04:00:00 8,9 8,4 4 2 14 8 SW 0,0
02.06.2020 03:00:00 9,1 8,5 3 1 16 9 ENE 0,0
02.06.2020 02:00:00 9,5 8,7 8 4 19 10 SSW 0,6
02.06.2020 01:00:00 9,3 8,8 5 3 10 5 NNE 0,0
02.06.2020 00:00:00 9,1 8,6 4 2 11 6 NE 0,0
01.06.2020 23:00:00 9,2 8,6 6 3 9 5 W 0,0
01.06.2020 22:00:00 9,8 9,0 4 2 25 14 WSW 0,0
01.06.2020 21:00:00 10,3 9,2 10 5 27 15 S 1,6
01.06.2020 20:00:00 10,9 10,1 4 2 14 8 SSW 1,0
01.06.2020 19:00:00 11,8 10,2 8 4 13 7 S 0,0
01.06.2020 18:00:00 13,6 11,6 5 3 13 7 SE 0,2
01.06.2020 17:00:00 13,6 10,8 3 2 12 7 S 0,4
01.06.2020 16:00:00 11,2 9,6 4 2 14 7 E 1,6
01.06.2020 15:00:00 11,3 10,0 5 3 14 8 E 0,6
01.06.2020 14:00:00 10,8 9,9 5 3 29 16 N 6,0
01.06.2020 13:00:00 10,8 8,9 6 3 29 16 N 10,7
01.06.2020 12:00:00 18,7 10,0 12 6 31 17 NE 0,0
01.06.2020 11:00:00 19,4 9,8 12 6 22 12 NNE 0,0
01.06.2020 10:00:00 17,1 8,5 4 2 15 8 NNE 0,0
01.06.2020 09:00:00 15,1 9,7 4 2 9 5 NNE 0,0
01.06.2020 08:00:00 11,5 8,0 2 1 16 9 NE 0,0
01.06.2020 07:00:00 6,9 5,2 9 5 19 11 WSW 0,0
01.06.2020 06:00:00 7,1 5,1 9 5 18 10 WSW 0,0
01.06.2020 05:00:00 8,1 6,2 9 5 18 10 WSW 0,0
01.06.2020 04:00:00 9,6 7,7 10 6 17 9 WSW 0,0
01.06.2020 03:00:00 10,5 8,1 7 4 32 18 SSE 0,0
01.06.2020 02:00:00 11,1 8,5 16 9 40 22 S 0,0
01.06.2020 01:00:00 11,2 8,2 18 10 40 22 S 0,0
01.06.2020 00:00:00 11,5 8,9 22 12 36 20 S 0,0
31.05.2020 23:00:00 13,3 8,6 20 11 33 18 SSW 0,0
31.05.2020 22:00:00 12,9 10,1 3 2 20 11 E 0,0
31.05.2020 21:00:00 13,2 10,9 4 2 16 9 S 0,0
31.05.2020 20:00:00 14,4 11,2 5 3 22 12 SSE 0,0
31.05.2020 19:00:00 14,4 11,4 14 8 36 19 ESE 0,0
31.05.2020 18:00:00 14,7 11,7 22 12 38 21 ESE 0,0
31.05.2020 17:00:00 17,1 12,6 21 11 38 21 SE 0,0
31.05.2020 16:00:00 18,1 13,0 12 6 - - E 0,0
31.05.2020 15:00:00 18,2 12,2 11 6 29 15 NE 0,0
31.05.2020 14:00:00 19,5 11,5 14 8 34 18 NNE 0,0
31.05.2020 13:00:00 19,7 11,5 18 10 35 19 NNE 0,0
31.05.2020 12:00:00 19,4 9,6 14 7 28 15 NNE 0,0
31.05.2020 11:00:00 19,0 10,3 13 7 26 14 NE 0,0
31.05.2020 10:00:00 18,2 9,0 6 3 15 8 NE 0,0
31.05.2020 09:00:00 14,9 10,5 5 3 10 5 NNE 0,0
31.05.2020 08:00:00 12,1 9,3 0 0 13 7 N 0,0
31.05.2020 07:00:00 6,9 6,0 4 2 19 10 W 0,0
31.05.2020 06:00:00 6,5 5,6 16 9 23 12 W 0,0
31.05.2020 05:00:00 6,8 5,6 12 6 24 13 WSW 0,0
31.05.2020 04:00:00 6,9 5,8 10 5 23 13 WSW 0,0
31.05.2020 03:00:00 7,3 6,2 13 7 20 11 WSW 0,0
31.05.2020 02:00:00 7,4 6,7 10 5 22 12 WSW 0,0
31.05.2020 01:00:00 8,0 6,9 9 5 18 10 W 0,0
31.05.2020 00:00:00 8,6 7,5 13 7 19 10 W 0,0
30.05.2020 23:00:00 9,5 8,4 9 5 15 8 WSW 0,0
30.05.2020 22:00:00 8,7 7,5 5 3 11 6 SW 0,0
30.05.2020 21:00:00 11,4 9,6 2 1 14 8 S 0,0
30.05.2020 20:00:00 12,8 10,9 9 5 26 14 ESE 0,0
30.05.2020 19:00:00 12,9 11,1 17 9 31 17 ESE 0,0
30.05.2020 18:00:00 15,1 10,9 11 6 32 17 ENE 0,0
30.05.2020 17:00:00 17,4 11,9 16 9 33 18 NNE 0,0
30.05.2020 16:00:00 17,1 10,9 15 8 34 18 NNE 0,0
30.05.2020 15:00:00 16,6 11,5 18 10 39 21 NE 0,0
30.05.2020 14:00:00 16,2 10,5 16 9 - - NNE 0,0
30.05.2020 13:00:00 18,3 12,1 16 9 37 20 NE 0,0
30.05.2020 12:00:00 17,5 10,8 18 10 37 20 NE 0,0
30.05.2020 11:00:00 15,8 9,0 14 8 31 17 NNE 0,0
30.05.2020 10:00:00 16,4 9,1 8 5 18 10 NNE 0,0
30.05.2020 09:00:00 13,4 8,2 4 2 7 4 NNE 0,0
30.05.2020 08:00:00 9,7 6,4 3 1 19 10 N 0,0
30.05.2020 07:00:00 5,8 4,0 14 8 21 11 WSW 0,0
30.05.2020 06:00:00 6,0 4,3 14 8 22 12 WSW 0,0
30.05.2020 05:00:00 6,5 4,7 13 7 20 11 W 0,0
30.05.2020 04:00:00 7,3 5,3 11 6 19 10 WSW 0,0
30.05.2020 03:00:00 7,8 5,9 11 6 15 8 WSW 0,0
30.05.2020 02:00:00 8,4 6,9 10 6 16 9 WSW 0,0
30.05.2020 01:00:00 8,9 7,3 7 4 14 8 WSW 0,0
30.05.2020 00:00:00 9,5 7,9 6 3 13 7 SW 0,0
29.05.2020 23:00:00 10,4 8,0 10 6 16 9 WSW 0,0
29.05.2020 22:00:00 10,7 7,4 6 3 20 11 WSW 0,0
29.05.2020 21:00:00 11,7 7,6 7 4 26 14 SE 0,0
29.05.2020 20:00:00 12,7 8,6 5 3 24 13 SSE 0,0
29.05.2020 19:00:00 15,0 9,6 13 7 32 18 NNE 0,0
29.05.2020 18:00:00 15,8 9,2 19 10 45 24 NNE 0,0
29.05.2020 17:00:00 18,3 9,1 21 11 44 24 NNE 0,0
29.05.2020 16:00:00 18,9 9,1 24 13 45 25 N 0,0
29.05.2020 15:00:00 19,4 9,3 22 12 42 23 N 0,0
29.05.2020 14:00:00 19,5 10,5 18 10 39 21 NNE 0,0
29.05.2020 13:00:00 19,2 11,7 16 9 37 20 NNE 0,0
29.05.2020 12:00:00 18,7 10,0 16 9 - - NNE -
29.05.2020 11:00:00 17,9 9,5 13 7 29 15 NNE 0,0
29.05.2020 10:00:00 15,9 8,4 8 4 16 8 NE 0,0
29.05.2020 09:00:00 13,3 9,7 3 2 9 5 NNE 0,0
29.05.2020 08:00:00 9,5 6,4 3 1 17 9 SSE 0,0
29.05.2020 07:00:00 4,7 1,9 7 4 22 12 WSW 0,0
29.05.2020 06:00:00 4,7 1,5 15 8 22 12 WSW 0,0
29.05.2020 05:00:00 5,3 2,8 14 8 22 12 WSW 0,0
29.05.2020 04:00:00 6,1 4,3 14 8 22 12 WSW 0,0
29.05.2020 03:00:00 7,4 5,5 13 7 20 11 WSW 0,0
29.05.2020 02:00:00 7,9 6,5 11 6 17 9 W 0,0
29.05.2020 01:00:00 8,3 6,8 12 6 18 10 WSW 0,0
29.05.2020 00:00:00 8,9 6,9 10 6 19 10 WSW 0,0
28.05.2020 23:00:00 9,9 7,3 12 6 19 10 W 0,0
28.05.2020 22:00:00 11,1 8,7 0 0 15 8 N 0,0
28.05.2020 21:00:00 13,2 9,1 11 6 22 12 NNW 0,0
28.05.2020 20:00:00 16,3 8,5 11 6 29 16 N 0,0
28.05.2020 19:00:00 18,4 9,2 16 9 34 18 N 0,0
28.05.2020 18:00:00 18,4 8,6 18 10 44 24 NNE 0,0
28.05.2020 17:00:00 19,3 9,2 17 9 40 22 N 0,0
28.05.2020 16:00:00 19,2 9,4 22 12 41 22 N 0,0
28.05.2020 15:00:00 19,4 8,7 19 10 39 21 N 0,0
28.05.2020 14:00:00 19,3 9,8 18 10 36 20 NNE 0,0
28.05.2020 13:00:00 18,8 9,8 19 10 36 19 NNE 0,0
28.05.2020 12:00:00 17,9 7,0 21 11 35 19 NNE 0,0
28.05.2020 11:00:00 17,2 7,8 18 10 32 17 NNE 0,0
28.05.2020 10:00:00 16,7 9,4 4 2 9 5 ENE 0,0
28.05.2020 09:00:00 13,0 8,3 3 2 7 4 NE 0,0
28.05.2020 08:00:00 9,0 4,6 6 3 22 12 WSW 0,0
28.05.2020 07:00:00 4,7 1,7 17 9 24 13 WSW 0,0
28.05.2020 06:00:00 4,9 2,8 16 8 22 12 W 0,0
28.05.2020 05:00:00 6,4 4,9 13 7 20 11 WSW 0,0
28.05.2020 04:00:00 6,7 5,2 11 6 19 11 WSW 0,0
28.05.2020 03:00:00 6,8 5,3 8 5 20 11 WSW 0,0
28.05.2020 02:00:00 7,8 6,4 9 5 17 9 W 0,0

tt = Température de l'air
td = dewpoint
ff = Vitesse du vent
fx = gusts
dd = Direction du vent
rr = Quantités de précipitations

stations d'obs. à proximité